sensor_id;sensor_type;location;lat;lon;timestamp;P1;durP1;ratioP1;P2;durP2;ratioP2
78053;SDS011;67726;45.636;11.752;2024-02-21T00:00:46;82.25;;;42.20;;
78053;SDS011;67726;45.636;11.752;2024-02-21T00:03:11;82.63;;;42.60;;
78053;SDS011;67726;45.636;11.752;2024-02-21T00:05:42;81.53;;;41.80;;
78053;SDS011;67726;45.636;11.752;2024-02-21T00:08:08;85.10;;;43.23;;
78053;SDS011;67726;45.636;11.752;2024-02-21T00:10:34;81.97;;;41.97;;
78053;SDS011;67726;45.636;11.752;2024-02-21T00:13:00;82.88;;;42.47;;
78053;SDS011;67726;45.636;11.752;2024-02-21T00:15:26;85.57;;;43.53;;
78053;SDS011;67726;45.636;11.752;2024-02-21T00:17:51;87.43;;;43.58;;
78053;SDS011;67726;45.636;11.752;2024-02-21T00:20:17;82.72;;;42.85;;
78053;SDS011;67726;45.636;11.752;2024-02-21T00:22:43;75.83;;;39.20;;
78053;SDS011;67726;45.636;11.752;2024-02-21T00:25:09;83.60;;;40.25;;
78053;SDS011;67726;45.636;11.752;2024-02-21T00:27:35;75.40;;;37.63;;
78053;SDS011;67726;45.636;11.752;2024-02-21T00:30:02;69.93;;;37.55;;
78053;SDS011;67726;45.636;11.752;2024-02-21T00:32:28;78.90;;;40.00;;
78053;SDS011;67726;45.636;11.752;2024-02-21T00:44:51;72.93;;;37.60;;
78053;SDS011;67726;45.636;11.752;2024-02-21T00:47:17;71.47;;;36.45;;
78053;SDS011;67726;45.636;11.752;2024-02-21T00:49:42;69.17;;;36.03;;
78053;SDS011;67726;45.636;11.752;2024-02-21T00:52:08;70.00;;;35.95;;
78053;SDS011;67726;45.636;11.752;2024-02-21T00:54:33;62.93;;;31.50;;
78053;SDS011;67726;45.636;11.752;2024-02-21T00:56:59;59.53;;;32.70;;
78053;SDS011;67726;45.636;11.752;2024-02-21T00:59:25;60.53;;;31.33;;
78053;SDS011;67726;45.636;11.752;2024-02-21T01:01:50;63.97;;;32.73;;
78053;SDS011;67726;45.636;11.752;2024-02-21T01:04:16;66.30;;;33.22;;
78053;SDS011;67726;45.636;11.752;2024-02-21T01:06:42;66.83;;;33.27;;
78053;SDS011;67726;45.636;11.752;2024-02-21T01:09:09;62.58;;;33.80;;
78053;SDS011;67726;45.636;11.752;2024-02-21T01:11:35;61.47;;;32.70;;
78053;SDS011;67726;45.636;11.752;2024-02-21T01:14:01;66.70;;;33.77;;
78053;SDS011;67726;45.636;11.752;2024-02-21T01:16:27;59.72;;;31.55;;
78053;SDS011;67726;45.636;11.752;2024-02-21T01:18:53;63.57;;;31.97;;
78053;SDS011;67726;45.636;11.752;2024-02-21T01:21:18;62.45;;;32.58;;
78053;SDS011;67726;45.636;11.752;2024-02-21T01:23:45;62.90;;;32.83;;
78053;SDS011;67726;45.636;11.752;2024-02-21T01:26:11;59.80;;;32.80;;
78053;SDS011;67726;45.636;11.752;2024-02-21T01:28:38;61.53;;;33.10;;
78053;SDS011;67726;45.636;11.752;2024-02-21T01:31:05;60.10;;;31.98;;
78053;SDS011;67726;45.636;11.752;2024-02-21T01:33:30;53.73;;;28.83;;
78053;SDS011;67726;45.636;11.752;2024-02-21T01:36:00;54.63;;;27.63;;
78053;SDS011;67726;45.636;11.752;2024-02-21T01:38:27;51.38;;;26.90;;
78053;SDS011;67726;45.636;11.752;2024-02-21T01:40:53;47.37;;;25.30;;
78053;SDS011;67726;45.636;11.752;2024-02-21T01:43:20;44.53;;;24.13;;
78053;SDS011;67726;45.636;11.752;2024-02-21T01:45:47;46.00;;;24.50;;
78053;SDS011;67726;45.636;11.752;2024-02-21T01:48:21;48.13;;;23.88;;
78053;SDS011;67726;45.636;11.752;2024-02-21T01:50:48;47.45;;;23.88;;
78053;SDS011;67726;45.636;11.752;2024-02-21T01:53:16;47.20;;;23.47;;
78053;SDS011;67726;45.636;11.752;2024-02-21T01:55:48;44.38;;;22.92;;
78053;SDS011;67726;45.636;11.752;2024-02-21T01:58:14;40.92;;;21.52;;
78053;SDS011;67726;45.636;11.752;2024-02-21T02:00:43;39.95;;;21.13;;
78053;SDS011;67726;45.636;11.752;2024-02-21T02:03:11;39.70;;;20.87;;
78053;SDS011;67726;45.636;11.752;2024-02-21T02:05:50;40.58;;;21.25;;
78053;SDS011;67726;45.636;11.752;2024-02-21T02:08:19;40.95;;;21.33;;
78053;SDS011;67726;45.636;11.752;2024-02-21T02:10:47;40.25;;;20.05;;
78053;SDS011;67726;45.636;11.752;2024-02-21T02:13:13;36.47;;;20.27;;
78053;SDS011;67726;45.636;11.752;2024-02-21T02:15:44;38.47;;;19.27;;
78053;SDS011;67726;45.636;11.752;2024-02-21T02:18:11;36.10;;;19.85;;
78053;SDS011;67726;45.636;11.752;2024-02-21T02:20:38;38.92;;;20.00;;
78053;SDS011;67726;45.636;11.752;2024-02-21T02:25:33;37.45;;;18.13;;
78053;SDS011;67726;45.636;11.752;2024-02-21T02:27:59;35.03;;;18.05;;
78053;SDS011;67726;45.636;11.752;2024-02-21T02:30:25;35.23;;;18.77;;
78053;SDS011;67726;45.636;11.752;2024-02-21T02:32:51;33.80;;;18.30;;
78053;SDS011;67726;45.636;11.752;2024-02-21T02:35:16;30.67;;;17.17;;
78053;SDS011;67726;45.636;11.752;2024-02-21T02:37:51;32.10;;;16.67;;
78053;SDS011;67726;45.636;11.752;2024-02-21T02:40:17;32.77;;;17.03;;
78053;SDS011;67726;45.636;11.752;2024-02-21T02:42:44;31.58;;;16.52;;
78053;SDS011;67726;45.636;11.752;2024-02-21T02:45:09;32.60;;;16.92;;
78053;SDS011;67726;45.636;11.752;2024-02-21T02:47:35;32.87;;;17.33;;
78053;SDS011;67726;45.636;11.752;2024-02-21T02:50:01;30.67;;;15.80;;
78053;SDS011;67726;45.636;11.752;2024-02-21T02:52:26;28.20;;;15.30;;
78053;SDS011;67726;45.636;11.752;2024-02-21T02:54:52;34.38;;;17.27;;
78053;SDS011;67726;45.636;11.752;2024-02-21T02:57:20;34.28;;;18.23;;
78053;SDS011;67726;45.636;11.752;2024-02-21T02:59:49;33.20;;;17.33;;
78053;SDS011;67726;45.636;11.752;2024-02-21T03:02:16;33.92;;;16.33;;
78053;SDS011;67726;45.636;11.752;2024-02-21T03:04:42;34.50;;;17.98;;
78053;SDS011;67726;45.636;11.752;2024-02-21T03:07:08;35.03;;;17.42;;
78053;SDS011;67726;45.636;11.752;2024-02-21T03:09:34;36.70;;;17.53;;
78053;SDS011;67726;45.636;11.752;2024-02-21T03:11:59;36.20;;;16.33;;
78053;SDS011;67726;45.636;11.752;2024-02-21T03:14:28;33.22;;;17.05;;
78053;SDS011;67726;45.636;11.752;2024-02-21T03:16:54;36.05;;;16.95;;
78053;SDS011;67726;45.636;11.752;2024-02-21T03:19:19;31.03;;;16.53;;
78053;SDS011;67726;45.636;11.752;2024-02-21T03:21:45;30.57;;;15.20;;
78053;SDS011;67726;45.636;11.752;2024-02-21T03:24:11;33.33;;;15.98;;
78053;SDS011;67726;45.636;11.752;2024-02-21T03:26:37;29.37;;;15.10;;
78053;SDS011;67726;45.636;11.752;2024-02-21T03:29:03;28.40;;;15.00;;
78053;SDS011;67726;45.636;11.752;2024-02-21T03:31:29;27.87;;;13.80;;
78053;SDS011;67726;45.636;11.752;2024-02-21T03:33:54;31.42;;;15.32;;
78053;SDS011;67726;45.636;11.752;2024-02-21T03:36:20;33.00;;;16.27;;
78053;SDS011;67726;45.636;11.752;2024-02-21T03:38:46;30.58;;;16.35;;
78053;SDS011;67726;45.636;11.752;2024-02-21T03:41:12;27.05;;;14.98;;
78053;SDS011;67726;45.636;11.752;2024-02-21T03:43:38;27.77;;;14.27;;
78053;SDS011;67726;45.636;11.752;2024-02-21T03:46:04;28.75;;;15.00;;
78053;SDS011;67726;45.636;11.752;2024-02-21T03:48:30;29.73;;;14.55;;
78053;SDS011;67726;45.636;11.752;2024-02-21T03:50:56;27.40;;;14.47;;
78053;SDS011;67726;45.636;11.752;2024-02-21T03:53:21;27.23;;;14.80;;
78053;SDS011;67726;45.636;11.752;2024-02-21T03:55:47;28.83;;;15.77;;
78053;SDS011;67726;45.636;11.752;2024-02-21T03:58:12;26.33;;;14.33;;
78053;SDS011;67726;45.636;11.752;2024-02-21T04:00:38;29.02;;;14.27;;
78053;SDS011;67726;45.636;11.752;2024-02-21T04:03:04;25.10;;;13.13;;
78053;SDS011;67726;45.636;11.752;2024-02-21T04:05:31;29.15;;;14.35;;
78053;SDS011;67726;45.636;11.752;2024-02-21T04:07:58;24.23;;;12.02;;
78053;SDS011;67726;45.636;11.752;2024-02-21T04:10:24;23.58;;;12.60;;
78053;SDS011;67726;45.636;11.752;2024-02-21T04:12:49;22.47;;;12.07;;
78053;SDS011;67726;45.636;11.752;2024-02-21T04:15:16;21.55;;;11.05;;
78053;SDS011;67726;45.636;11.752;2024-02-21T04:17:41;25.50;;;11.63;;
78053;SDS011;67726;45.636;11.752;2024-02-21T04:20:13;24.20;;;12.32;;
78053;SDS011;67726;45.636;11.752;2024-02-21T04:22:41;23.77;;;12.18;;
78053;SDS011;67726;45.636;11.752;2024-02-21T04:25:09;32.40;;;12.85;;
78053;SDS011;67726;45.636;11.752;2024-02-21T04:27:36;22.98;;;13.10;;
78053;SDS011;67726;45.636;11.752;2024-02-21T04:30:03;23.97;;;12.93;;
78053;SDS011;67726;45.636;11.752;2024-02-21T04:32:29;27.83;;;14.13;;
78053;SDS011;67726;45.636;11.752;2024-02-21T04:34:55;27.58;;;14.15;;
78053;SDS011;67726;45.636;11.752;2024-02-21T04:37:20;25.53;;;13.03;;
78053;SDS011;67726;45.636;11.752;2024-02-21T04:39:46;25.20;;;13.70;;
78053;SDS011;67726;45.636;11.752;2024-02-21T04:42:13;24.48;;;12.15;;
78053;SDS011;67726;45.636;11.752;2024-02-21T04:44:39;21.85;;;11.32;;
78053;SDS011;67726;45.636;11.752;2024-02-21T04:47:04;27.03;;;13.37;;
78053;SDS011;67726;45.636;11.752;2024-02-21T04:49:30;24.00;;;12.40;;
78053;SDS011;67726;45.636;11.752;2024-02-21T04:51:56;25.23;;;12.20;;
78053;SDS011;67726;45.636;11.752;2024-02-21T04:54:21;25.13;;;12.50;;
78053;SDS011;67726;45.636;11.752;2024-02-21T04:56:47;21.40;;;12.00;;
78053;SDS011;67726;45.636;11.752;2024-02-21T04:59:13;26.00;;;12.03;;
78053;SDS011;67726;45.636;11.752;2024-02-21T05:01:38;29.50;;;12.30;;
78053;SDS011;67726;45.636;11.752;2024-02-21T05:04:04;23.10;;;11.90;;
78053;SDS011;67726;45.636;11.752;2024-02-21T05:06:30;23.45;;;11.68;;
78053;SDS011;67726;45.636;11.752;2024-02-21T05:08:55;21.50;;;11.00;;
78053;SDS011;67726;45.636;11.752;2024-02-21T05:11:22;20.10;;;10.82;;
78053;SDS011;67726;45.636;11.752;2024-02-21T05:13:48;22.48;;;11.15;;
78053;SDS011;67726;45.636;11.752;2024-02-21T05:16:14;19.80;;;11.23;;
78053;SDS011;67726;45.636;11.752;2024-02-21T05:18:40;22.30;;;11.37;;
78053;SDS011;67726;45.636;11.752;2024-02-21T05:21:07;23.15;;;12.85;;
78053;SDS011;67726;45.636;11.752;2024-02-21T05:23:33;24.00;;;12.13;;
78053;SDS011;67726;45.636;11.752;2024-02-21T05:25:59;24.17;;;12.07;;
78053;SDS011;67726;45.636;11.752;2024-02-21T05:28:25;26.67;;;12.75;;
78053;SDS011;67726;45.636;11.752;2024-02-21T05:30:50;24.47;;;12.27;;
78053;SDS011;67726;45.636;11.752;2024-02-21T05:33:16;23.23;;;11.77;;
78053;SDS011;67726;45.636;11.752;2024-02-21T05:35:49;24.52;;;11.95;;
78053;SDS011;67726;45.636;11.752;2024-02-21T05:38:15;27.10;;;11.63;;
78053;SDS011;67726;45.636;11.752;2024-02-21T05:40:41;22.67;;;11.80;;
78053;SDS011;67726;45.636;11.752;2024-02-21T05:43:07;21.00;;;11.27;;
78053;SDS011;67726;45.636;11.752;2024-02-21T05:45:33;22.30;;;11.43;;
78053;SDS011;67726;45.636;11.752;2024-02-21T05:47:59;20.70;;;11.40;;
78053;SDS011;67726;45.636;11.752;2024-02-21T05:50:25;25.20;;;10.23;;
78053;SDS011;67726;45.636;11.752;2024-02-21T05:52:54;16.73;;;9.43;;
78053;SDS011;67726;45.636;11.752;2024-02-21T05:55:21;19.58;;;10.90;;
78053;SDS011;67726;45.636;11.752;2024-02-21T05:57:47;19.43;;;10.33;;
78053;SDS011;67726;45.636;11.752;2024-02-21T06:00:13;22.40;;;11.27;;
78053;SDS011;67726;45.636;11.752;2024-02-21T06:02:40;19.73;;;10.70;;
78053;SDS011;67726;45.636;11.752;2024-02-21T06:05:06;22.90;;;10.55;;
78053;SDS011;67726;45.636;11.752;2024-02-21T06:07:33;22.95;;;11.10;;
78053;SDS011;67726;45.636;11.752;2024-02-21T06:10:02;20.37;;;10.47;;
78053;SDS011;67726;45.636;11.752;2024-02-21T06:12:28;23.60;;;11.38;;
78053;SDS011;67726;45.636;11.752;2024-02-21T06:14:54;22.60;;;10.18;;
78053;SDS011;67726;45.636;11.752;2024-02-21T06:17:19;22.63;;;10.97;;
78053;SDS011;67726;45.636;11.752;2024-02-21T06:19:45;19.77;;;10.25;;
78053;SDS011;67726;45.636;11.752;2024-02-21T06:22:11;20.80;;;9.87;;
78053;SDS011;67726;45.636;11.752;2024-02-21T06:24:37;20.70;;;10.32;;
78053;SDS011;67726;45.636;11.752;2024-02-21T06:27:04;22.75;;;10.18;;
78053;SDS011;67726;45.636;11.752;2024-02-21T06:29:33;22.42;;;10.20;;
78053;SDS011;67726;45.636;11.752;2024-02-21T06:31:59;24.03;;;10.13;;
78053;SDS011;67726;45.636;11.752;2024-02-21T06:34:26;25.00;;;11.50;;
78053;SDS011;67726;45.636;11.752;2024-02-21T06:36:51;22.83;;;12.15;;
78053;SDS011;67726;45.636;11.752;2024-02-21T06:39:17;22.60;;;11.23;;
78053;SDS011;67726;45.636;11.752;2024-02-21T06:41:43;21.20;;;11.55;;
78053;SDS011;67726;45.636;11.752;2024-02-21T06:44:09;27.80;;;12.67;;
78053;SDS011;67726;45.636;11.752;2024-02-21T06:46:34;26.60;;;12.15;;
78053;SDS011;67726;45.636;11.752;2024-02-21T06:49:01;27.10;;;11.50;;
78053;SDS011;67726;45.636;11.752;2024-02-21T06:51:28;22.52;;;10.60;;
78053;SDS011;67726;45.636;11.752;2024-02-21T06:53:54;18.33;;;10.10;;
78053;SDS011;67726;45.636;11.752;2024-02-21T06:56:20;18.05;;;8.85;;
78053;SDS011;67726;45.636;11.752;2024-02-21T06:58:54;18.50;;;8.90;;
78053;SDS011;67726;45.636;11.752;2024-02-21T07:01:20;14.30;;;7.30;;
78053;SDS011;67726;45.636;11.752;2024-02-21T07:03:46;18.27;;;7.97;;
78053;SDS011;67726;45.636;11.752;2024-02-21T07:06:11;19.92;;;8.52;;
78053;SDS011;67726;45.636;11.752;2024-02-21T07:08:37;16.80;;;9.17;;
78053;SDS011;67726;45.636;11.752;2024-02-21T07:11:04;16.38;;;8.15;;
78053;SDS011;67726;45.636;11.752;2024-02-21T07:13:29;21.10;;;6.47;;
78053;SDS011;67726;45.636;11.752;2024-02-21T07:15:55;12.23;;;6.50;;
78053;SDS011;67726;45.636;11.752;2024-02-21T07:18:21;11.20;;;5.30;;
78053;SDS011;67726;45.636;11.752;2024-02-21T07:20:47;9.27;;;5.30;;
78053;SDS011;67726;45.636;11.752;2024-02-21T07:23:12;14.75;;;4.93;;
78053;SDS011;67726;45.636;11.752;2024-02-21T07:25:38;13.97;;;4.73;;
78053;SDS011;67726;45.636;11.752;2024-02-21T07:28:04;12.93;;;5.47;;
78053;SDS011;67726;45.636;11.752;2024-02-21T07:30:30;11.73;;;4.97;;
78053;SDS011;67726;45.636;11.752;2024-02-21T07:32:56;15.40;;;6.33;;
78053;SDS011;67726;45.636;11.752;2024-02-21T07:35:22;12.85;;;6.03;;
78053;SDS011;67726;45.636;11.752;2024-02-21T07:37:48;15.30;;;6.50;;
78053;SDS011;67726;45.636;11.752;2024-02-21T07:40:13;10.90;;;5.87;;
78053;SDS011;67726;45.636;11.752;2024-02-21T07:42:40;13.75;;;6.25;;
78053;SDS011;67726;45.636;11.752;2024-02-21T07:45:09;14.63;;;6.72;;
78053;SDS011;67726;45.636;11.752;2024-02-21T07:47:36;10.80;;;5.63;;
78053;SDS011;67726;45.636;11.752;2024-02-21T07:50:02;9.20;;;4.93;;
78053;SDS011;67726;45.636;11.752;2024-02-21T07:52:29;10.55;;;5.05;;
78053;SDS011;67726;45.636;11.752;2024-02-21T07:54:54;9.30;;;4.20;;
78053;SDS011;67726;45.636;11.752;2024-02-21T07:57:20;10.80;;;4.20;;
78053;SDS011;67726;45.636;11.752;2024-02-21T07:59:47;13.73;;;7.03;;
78053;SDS011;67726;45.636;11.752;2024-02-21T08:02:13;17.10;;;8.13;;
78053;SDS011;67726;45.636;11.752;2024-02-21T08:04:39;15.20;;;8.85;;
78053;SDS011;67726;45.636;11.752;2024-02-21T08:07:05;15.70;;;8.83;;
78053;SDS011;67726;45.636;11.752;2024-02-21T08:09:30;14.68;;;8.73;;
78053;SDS011;67726;45.636;11.752;2024-02-21T08:11:56;16.13;;;8.13;;
78053;SDS011;67726;45.636;11.752;2024-02-21T08:14:22;18.85;;;8.75;;
78053;SDS011;67726;45.636;11.752;2024-02-21T08:16:50;16.13;;;8.88;;
78053;SDS011;67726;45.636;11.752;2024-02-21T08:19:18;14.47;;;7.90;;
78053;SDS011;67726;45.636;11.752;2024-02-21T08:21:44;13.20;;;6.55;;
78053;SDS011;67726;45.636;11.752;2024-02-21T08:24:12;12.23;;;6.40;;
78053;SDS011;67726;45.636;11.752;2024-02-21T08:26:40;14.82;;;7.07;;
78053;SDS011;67726;45.636;11.752;2024-02-21T08:29:06;13.82;;;7.40;;
78053;SDS011;67726;45.636;11.752;2024-02-21T08:31:32;13.00;;;6.80;;
78053;SDS011;67726;45.636;11.752;2024-02-21T08:33:59;13.63;;;6.50;;
78053;SDS011;67726;45.636;11.752;2024-02-21T08:36:31;12.63;;;5.80;;
78053;SDS011;67726;45.636;11.752;2024-02-21T08:38:58;13.32;;;6.35;;
78053;SDS011;67726;45.636;11.752;2024-02-21T08:41:25;13.93;;;5.90;;
78053;SDS011;67726;45.636;11.752;2024-02-21T08:43:53;11.10;;;6.00;;
78053;SDS011;67726;45.636;11.752;2024-02-21T08:46:19;12.13;;;5.65;;
78053;SDS011;67726;45.636;11.752;2024-02-21T08:48:46;11.55;;;5.60;;
78053;SDS011;67726;45.636;11.752;2024-02-21T08:51:12;13.13;;;5.77;;
78053;SDS011;67726;45.636;11.752;2024-02-21T08:53:38;12.02;;;6.10;;
78053;SDS011;67726;45.636;11.752;2024-02-21T08:56:07;10.27;;;5.72;;
78053;SDS011;67726;45.636;11.752;2024-02-21T08:58:33;13.17;;;5.53;;
78053;SDS011;67726;45.636;11.752;2024-02-21T09:01:00;9.00;;;4.63;;
78053;SDS011;67726;45.636;11.752;2024-02-21T09:03:26;13.25;;;5.63;;
78053;SDS011;67726;45.636;11.752;2024-02-21T09:05:51;9.60;;;4.93;;
78053;SDS011;67726;45.636;11.752;2024-02-21T09:08:18;10.02;;;4.80;;
78053;SDS011;67726;45.636;11.752;2024-02-21T09:10:44;9.30;;;4.72;;
78053;SDS011;67726;45.636;11.752;2024-02-21T09:13:09;10.97;;;6.17;;
78053;SDS011;67726;45.636;11.752;2024-02-21T09:15:35;12.05;;;5.68;;
78053;SDS011;67726;45.636;11.752;2024-02-21T09:18:01;11.63;;;6.70;;
78053;SDS011;67726;45.636;11.752;2024-02-21T09:20:26;12.93;;;6.53;;
78053;SDS011;67726;45.636;11.752;2024-02-21T09:22:52;10.33;;;5.73;;
78053;SDS011;67726;45.636;11.752;2024-02-21T09:25:18;9.67;;;5.80;;
78053;SDS011;67726;45.636;11.752;2024-02-21T09:27:44;9.17;;;5.97;;
78053;SDS011;67726;45.636;11.752;2024-02-21T09:30:10;12.55;;;5.82;;
78053;SDS011;67726;45.636;11.752;2024-02-21T09:32:36;11.05;;;5.90;;
78053;SDS011;67726;45.636;11.752;2024-02-21T09:35:05;11.38;;;6.30;;
78053;SDS011;67726;45.636;11.752;2024-02-21T09:37:31;10.05;;;5.57;;
78053;SDS011;67726;45.636;11.752;2024-02-21T09:39:57;9.47;;;5.40;;
78053;SDS011;67726;45.636;11.752;2024-02-21T09:42:23;10.00;;;5.82;;
78053;SDS011;67726;45.636;11.752;2024-02-21T09:44:56;10.98;;;5.90;;
78053;SDS011;67726;45.636;11.752;2024-02-21T09:47:22;9.13;;;5.03;;
78053;SDS011;67726;45.636;11.752;2024-02-21T09:49:56;9.80;;;5.30;;
78053;SDS011;67726;45.636;11.752;2024-02-21T09:52:23;10.38;;;5.30;;
78053;SDS011;67726;45.636;11.752;2024-02-21T09:54:51;8.67;;;4.87;;
78053;SDS011;67726;45.636;11.752;2024-02-21T09:57:18;8.20;;;3.95;;
78053;SDS011;67726;45.636;11.752;2024-02-21T09:59:45;8.85;;;4.40;;
78053;SDS011;67726;45.636;11.752;2024-02-21T10:02:11;8.20;;;4.35;;
78053;SDS011;67726;45.636;11.752;2024-02-21T10:04:37;8.10;;;4.15;;
78053;SDS011;67726;45.636;11.752;2024-02-21T10:07:05;7.57;;;4.07;;
78053;SDS011;67726;45.636;11.752;2024-02-21T10:09:31;10.02;;;4.60;;
78053;SDS011;67726;45.636;11.752;2024-02-21T10:12:10;9.43;;;4.43;;
78053;SDS011;67726;45.636;11.752;2024-02-21T10:14:37;7.93;;;4.30;;
78053;SDS011;67726;45.636;11.752;2024-02-21T10:17:03;8.47;;;4.30;;
78053;SDS011;67726;45.636;11.752;2024-02-21T10:19:34;10.05;;;4.55;;
78053;SDS011;67726;45.636;11.752;2024-02-21T10:22:09;10.40;;;4.90;;
78053;SDS011;67726;45.636;11.752;2024-02-21T10:24:35;9.18;;;4.60;;
78053;SDS011;67726;45.636;11.752;2024-02-21T10:27:06;10.83;;;4.43;;
78053;SDS011;67726;45.636;11.752;2024-02-21T10:29:38;8.10;;;4.40;;
78053;SDS011;67726;45.636;11.752;2024-02-21T10:34:35;9.93;;;5.00;;
78053;SDS011;67726;45.636;11.752;2024-02-21T10:37:03;10.82;;;5.45;;
78053;SDS011;67726;45.636;11.752;2024-02-21T10:39:31;9.53;;;5.30;;
78053;SDS011;67726;45.636;11.752;2024-02-21T10:41:59;10.18;;;5.20;;
78053;SDS011;67726;45.636;11.752;2024-02-21T10:44:29;11.23;;;5.10;;
78053;SDS011;67726;45.636;11.752;2024-02-21T10:46:57;8.40;;;4.50;;
78053;SDS011;67726;45.636;11.752;2024-02-21T10:49:24;10.30;;;4.88;;
78053;SDS011;67726;45.636;11.752;2024-02-21T10:51:50;9.77;;;4.80;;
78053;SDS011;67726;45.636;11.752;2024-02-21T10:54:43;9.75;;;4.97;;
78053;SDS011;67726;45.636;11.752;2024-02-21T10:57:12;8.20;;;4.57;;
78053;SDS011;67726;45.636;11.752;2024-02-21T10:59:39;9.75;;;5.22;;
78053;SDS011;67726;45.636;11.752;2024-02-21T11:02:05;10.10;;;4.82;;
78053;SDS011;67726;45.636;11.752;2024-02-21T11:04:31;9.80;;;4.77;;
78053;SDS011;67726;45.636;11.752;2024-02-21T11:07:01;9.10;;;5.07;;
78053;SDS011;67726;45.636;11.752;2024-02-21T11:09:31;11.43;;;5.30;;
78053;SDS011;67726;45.636;11.752;2024-02-21T11:11:57;11.93;;;5.53;;
78053;SDS011;67726;45.636;11.752;2024-02-21T11:14:25;10.23;;;5.50;;
78053;SDS011;67726;45.636;11.752;2024-02-21T11:16:52;11.48;;;5.57;;
78053;SDS011;67726;45.636;11.752;2024-02-21T11:21:46;12.95;;;6.07;;
78053;SDS011;67726;45.636;11.752;2024-02-21T11:24:13;12.23;;;6.53;;
78053;SDS011;67726;45.636;11.752;2024-02-21T11:26:39;10.88;;;5.90;;
78053;SDS011;67726;45.636;11.752;2024-02-21T11:29:07;10.82;;;6.10;;
78053;SDS011;67726;45.636;11.752;2024-02-21T11:31:41;10.82;;;6.57;;
78053;SDS011;67726;45.636;11.752;2024-02-21T11:34:08;14.32;;;7.38;;
78053;SDS011;67726;45.636;11.752;2024-02-21T11:36:35;13.07;;;7.33;;
78053;SDS011;67726;45.636;11.752;2024-02-21T11:39:04;12.73;;;6.82;;
78053;SDS011;67726;45.636;11.752;2024-02-21T11:41:30;15.27;;;7.13;;
78053;SDS011;67726;45.636;11.752;2024-02-21T11:43:57;12.43;;;6.70;;
78053;SDS011;67726;45.636;11.752;2024-02-21T11:46:22;12.50;;;7.32;;
78053;SDS011;67726;45.636;11.752;2024-02-21T11:48:48;14.00;;;7.22;;
78053;SDS011;67726;45.636;11.752;2024-02-21T11:51:26;13.88;;;8.60;;
78053;SDS011;67726;45.636;11.752;2024-02-21T11:53:55;15.90;;;8.80;;
78053;SDS011;67726;45.636;11.752;2024-02-21T11:56:20;14.70;;;7.82;;
78053;SDS011;67726;45.636;11.752;2024-02-21T11:58:47;14.27;;;8.50;;
78053;SDS011;67726;45.636;11.752;2024-02-21T12:01:14;14.73;;;9.05;;
78053;SDS011;67726;45.636;11.752;2024-02-21T12:03:40;17.73;;;10.18;;
78053;SDS011;67726;45.636;11.752;2024-02-21T12:06:07;19.77;;;11.47;;
78053;SDS011;67726;45.636;11.752;2024-02-21T12:08:42;19.17;;;10.98;;
78053;SDS011;67726;45.636;11.752;2024-02-21T12:11:19;16.13;;;9.40;;
78053;SDS011;67726;45.636;11.752;2024-02-21T12:13:46;16.35;;;9.43;;
78053;SDS011;67726;45.636;11.752;2024-02-21T12:16:16;18.65;;;10.35;;
78053;SDS011;67726;45.636;11.752;2024-02-21T12:18:43;19.70;;;11.33;;
78053;SDS011;67726;45.636;11.752;2024-02-21T12:21:09;21.63;;;12.65;;
78053;SDS011;67726;45.636;11.752;2024-02-21T12:23:37;23.48;;;13.02;;
78053;SDS011;67726;45.636;11.752;2024-02-21T12:26:04;26.07;;;13.80;;
78053;SDS011;67726;45.636;11.752;2024-02-21T12:28:30;20.52;;;11.88;;
78053;SDS011;67726;45.636;11.752;2024-02-21T12:30:56;21.57;;;12.10;;
78053;SDS011;67726;45.636;11.752;2024-02-21T12:33:21;20.65;;;13.00;;
78053;SDS011;67726;45.636;11.752;2024-02-21T12:35:47;20.17;;;11.40;;
78053;SDS011;67726;45.636;11.752;2024-02-21T12:38:14;24.55;;;15.70;;
78053;SDS011;67726;45.636;11.752;2024-02-21T12:40:40;27.20;;;15.65;;
78053;SDS011;67726;45.636;11.752;2024-02-21T12:43:05;27.60;;;16.53;;
78053;SDS011;67726;45.636;11.752;2024-02-21T12:45:31;28.17;;;16.10;;
78053;SDS011;67726;45.636;11.752;2024-02-21T12:47:58;27.98;;;16.08;;
78053;SDS011;67726;45.636;11.752;2024-02-21T12:50:24;30.23;;;17.07;;
78053;SDS011;67726;45.636;11.752;2024-02-21T12:52:49;29.90;;;16.67;;
78053;SDS011;67726;45.636;11.752;2024-02-21T12:55:15;25.20;;;14.20;;
78053;SDS011;67726;45.636;11.752;2024-02-21T12:57:41;23.77;;;15.27;;
78053;SDS011;67726;45.636;11.752;2024-02-21T13:00:07;24.75;;;14.38;;
78053;SDS011;67726;45.636;11.752;2024-02-21T13:02:34;25.43;;;14.33;;
78053;SDS011;67726;45.636;11.752;2024-02-21T13:05:00;23.80;;;13.63;;
78053;SDS011;67726;45.636;11.752;2024-02-21T13:07:27;24.05;;;13.93;;
78053;SDS011;67726;45.636;11.752;2024-02-21T13:09:57;23.02;;;13.27;;
78053;SDS011;67726;45.636;11.752;2024-02-21T13:12:23;26.00;;;13.38;;
78053;SDS011;67726;45.636;11.752;2024-02-21T13:14:51;28.70;;;14.63;;
78053;SDS011;67726;45.636;11.752;2024-02-21T13:17:16;22.38;;;12.88;;
78053;SDS011;67726;45.636;11.752;2024-02-21T13:19:42;24.20;;;13.27;;
78053;SDS011;67726;45.636;11.752;2024-02-21T13:22:08;23.33;;;13.20;;
78053;SDS011;67726;45.636;11.752;2024-02-21T13:24:34;23.85;;;14.35;;
78053;SDS011;67726;45.636;11.752;2024-02-21T13:27:00;23.97;;;13.60;;
78053;SDS011;67726;45.636;11.752;2024-02-21T13:29:25;23.33;;;12.65;;
78053;SDS011;67726;45.636;11.752;2024-02-21T13:31:51;23.93;;;13.90;;
78053;SDS011;67726;45.636;11.752;2024-02-21T13:34:17;25.40;;;14.07;;
78053;SDS011;67726;45.636;11.752;2024-02-21T13:36:43;25.63;;;14.45;;
78053;SDS011;67726;45.636;11.752;2024-02-21T13:39:08;25.33;;;14.07;;
78053;SDS011;67726;45.636;11.752;2024-02-21T13:41:37;23.70;;;13.52;;
78053;SDS011;67726;45.636;11.752;2024-02-21T13:44:03;23.33;;;13.73;;
78053;SDS011;67726;45.636;11.752;2024-02-21T13:46:29;24.27;;;13.82;;
78053;SDS011;67726;45.636;11.752;2024-02-21T13:49:02;25.15;;;13.40;;
78053;SDS011;67726;45.636;11.752;2024-02-21T13:51:32;23.33;;;13.50;;
78053;SDS011;67726;45.636;11.752;2024-02-21T13:54:01;21.30;;;13.37;;
78053;SDS011;67726;45.636;11.752;2024-02-21T13:56:29;22.27;;;13.40;;
78053;SDS011;67726;45.636;11.752;2024-02-21T13:58:55;23.58;;;13.55;;
78053;SDS011;67726;45.636;11.752;2024-02-21T14:01:20;23.83;;;14.07;;
78053;SDS011;67726;45.636;11.752;2024-02-21T14:03:46;26.90;;;14.73;;
78053;SDS011;67726;45.636;11.752;2024-02-21T14:06:12;24.33;;;13.83;;
78053;SDS011;67726;45.636;11.752;2024-02-21T14:08:37;25.25;;;13.48;;
78053;SDS011;67726;45.636;11.752;2024-02-21T14:11:04;25.08;;;14.65;;
78053;SDS011;67726;45.636;11.752;2024-02-21T14:13:31;26.27;;;14.33;;
78053;SDS011;67726;45.636;11.752;2024-02-21T14:15:57;25.58;;;13.80;;
78053;SDS011;67726;45.636;11.752;2024-02-21T14:18:22;23.20;;;13.13;;
78053;SDS011;67726;45.636;11.752;2024-02-21T14:20:48;24.98;;;15.10;;
78053;SDS011;67726;45.636;11.752;2024-02-21T14:23:13;25.03;;;14.63;;
78053;SDS011;67726;45.636;11.752;2024-02-21T14:25:39;26.92;;;14.73;;
78053;SDS011;67726;45.636;11.752;2024-02-21T14:28:07;26.63;;;15.00;;